createdAt,value
2023-01-23T00:04:52.270Z,7.40
2023-01-23T00:09:54.460Z,7.30
2023-01-23T00:14:56.687Z,7.30
2023-01-23T00:19:59.661Z,7.40
2023-01-23T00:25:01.901Z,7.60
2023-01-23T00:30:04.961Z,7.60
2023-01-23T00:35:07.494Z,7.80
2023-01-23T00:40:10.435Z,7.90
2023-01-23T00:45:13.665Z,7.90
2023-01-23T00:50:16.149Z,7.80
2023-01-23T00:55:18.401Z,7.80
2023-01-23T01:00:20.912Z,8.00
2023-01-23T01:05:23.742Z,7.90
2023-01-23T01:10:29.784Z,7.90
2023-01-23T01:15:32.447Z,7.80
2023-01-23T01:20:34.744Z,7.40
2023-01-23T01:25:37.892Z,7.40
2023-01-23T01:30:41.395Z,7.20
2023-01-23T01:35:43.869Z,7.10
2023-01-23T01:40:46.194Z,7.00
2023-01-23T01:51:13.403Z,7.10
2023-01-23T01:56:17.603Z,7.20
2023-01-23T02:01:20.504Z,7.10
2023-01-23T02:06:22.863Z,7.20
2023-01-23T02:11:26.578Z,7.30
2023-01-23T02:16:32.909Z,7.00
2023-01-23T02:21:37.355Z,7.00
2023-01-23T02:26:42.535Z,7.00
2023-01-23T02:31:46.157Z,7.10
2023-01-23T02:36:50.334Z,7.40
2023-01-23T02:41:55.022Z,7.60
2023-01-23T02:47:08.775Z,7.70
2023-01-23T02:52:11.114Z,7.80
2023-01-23T02:57:14.482Z,7.90
2023-01-23T03:02:17.477Z,7.80
2023-01-23T03:07:19.823Z,7.70
2023-01-23T03:12:22.194Z,7.60
2023-01-23T03:17:25.044Z,7.70
2023-01-23T03:22:28.068Z,7.70
2023-01-23T03:27:30.487Z,7.80
2023-01-23T03:32:33.030Z,7.80
2023-01-23T03:37:35.509Z,7.70
2023-01-23T03:42:37.911Z,7.70
2023-01-23T03:47:42.446Z,7.70
2023-01-23T03:52:44.932Z,7.40
2023-01-23T03:57:47.262Z,6.90
2023-01-23T04:02:49.723Z,6.90
2023-01-23T04:07:53.127Z,6.60
2023-01-23T04:12:55.514Z,6.60
2023-01-23T04:17:58.806Z,6.70
2023-01-23T04:23:01.883Z,6.90
2023-01-23T04:28:05.699Z,6.90
2023-01-23T04:33:08.436Z,6.90
2023-01-23T04:38:12.416Z,6.90
2023-01-23T04:43:14.728Z,6.80
2023-01-23T04:48:21.385Z,6.90
2023-01-23T04:53:23.625Z,7.00
2023-01-23T04:58:33.212Z,6.90
2023-01-23T05:03:38.628Z,6.70
2023-01-23T05:08:40.980Z,6.60
2023-01-23T05:13:54.589Z,6.70
2023-01-23T05:18:57.006Z,6.90
2023-01-23T05:23:59.383Z,6.70
2023-01-23T05:29:01.696Z,6.40
2023-01-23T05:34:05.034Z,6.40
2023-01-23T05:39:08.341Z,6.40
2023-01-23T05:44:10.729Z,6.30
2023-01-23T05:49:23.483Z,6.40
2023-01-23T05:54:26.792Z,6.40
2023-01-23T05:59:29.270Z,6.50
2023-01-23T06:04:51.373Z,6.70
2023-01-23T06:10:00.407Z,6.60
2023-01-23T06:15:02.819Z,6.80
2023-01-23T06:20:05.784Z,6.80
2023-01-23T06:25:09.531Z,6.80
2023-01-23T06:30:12.480Z,6.80
2023-01-23T06:35:18.136Z,6.60
2023-01-23T06:40:21.219Z,6.50
2023-01-23T06:45:37.244Z,6.30
2023-01-23T06:50:42.083Z,6.30
2023-01-23T06:55:45.510Z,6.50
2023-01-23T07:00:49.743Z,6.50
2023-01-23T07:06:13.864Z,6.60
2023-01-23T07:11:16.355Z,6.60
2023-01-23T07:16:19.585Z,6.80
2023-01-23T07:21:21.907Z,6.90
2023-01-23T07:26:24.452Z,6.80
2023-01-23T07:31:27.515Z,6.90
2023-01-23T07:36:30.490Z,6.90
2023-01-23T07:41:32.783Z,6.80
2023-01-23T07:46:38.374Z,6.60
2023-01-23T07:51:40.829Z,6.70
2023-01-23T07:56:43.085Z,6.70
2023-01-23T08:01:45.353Z,6.90
2023-01-23T08:06:47.624Z,6.90
2023-01-23T08:11:52.543Z,7.00
2023-01-23T08:16:55.237Z,6.90
2023-01-23T08:21:57.419Z,7.00
2023-01-23T08:26:59.743Z,6.80
2023-01-23T08:32:02.194Z,6.80
2023-01-23T08:37:04.775Z,6.80
2023-01-23T08:42:07.453Z,6.90
2023-01-23T08:47:09.807Z,6.90
2023-01-23T08:52:12.196Z,7.00
2023-01-23T08:57:14.607Z,7.10
2023-01-23T09:02:17.118Z,7.20
2023-01-23T09:07:19.448Z,7.30
2023-01-23T09:12:21.877Z,7.50
2023-01-23T09:17:24.091Z,7.40
2023-01-23T09:22:26.509Z,7.60
2023-01-23T09:27:28.764Z,7.70
2023-01-23T09:32:31.140Z,7.70
2023-01-23T09:37:58.502Z,7.70
2023-01-23T09:43:12.488Z,7.70
2023-01-23T09:53:31.203Z,7.60
2023-01-23T09:58:46.947Z,7.50
2023-01-23T10:03:49.424Z,7.20
2023-01-23T10:35:47.547Z,7.10
2023-01-23T10:41:09.826Z,7.20
2023-01-23T11:02:17.434Z,7.00
2023-01-23T11:07:26.445Z,7.10
2023-01-23T11:12:31.253Z,7.00
2023-01-23T11:17:33.907Z,6.90
2023-01-23T11:22:41.035Z,7.20
2023-01-23T11:27:58.467Z,7.30
2023-01-23T11:38:52.154Z,7.00
2023-01-23T11:43:55.307Z,7.00
2023-01-23T11:59:57.471Z,7.00
2023-01-23T12:10:39.787Z,7.10
2023-01-23T12:21:08.713Z,6.70
2023-01-23T12:41:54.090Z,6.50
2023-01-23T12:52:15.657Z,6.30
2023-01-23T12:57:52.824Z,6.10
2023-01-23T13:08:38.109Z,6.00
2023-01-23T13:13:46.784Z,6.20
2023-01-23T13:19:22.005Z,5.90
2023-01-23T13:25:06.149Z,5.70
2023-01-23T14:24:03.881Z,6.30
2023-01-23T14:29:22.949Z,6.30
2023-01-23T14:34:26.884Z,6.40
2023-01-23T14:39:32.099Z,6.50
2023-01-23T14:44:45.832Z,6.40
2023-01-23T14:49:48.330Z,6.40
2023-01-23T14:54:54.106Z,6.20
2023-01-23T14:59:58.620Z,6.20
2023-01-23T15:15:34.112Z,6.20
2023-01-23T15:20:40.835Z,6.30
2023-01-23T15:25:43.182Z,6.30
2023-01-23T15:30:48.597Z,6.30
2023-01-23T15:35:51.130Z,6.40
2023-01-23T15:40:53.509Z,6.40
2023-01-23T15:45:55.953Z,6.40
2023-01-23T15:50:59.026Z,6.30
2023-01-23T15:56:02.165Z,6.30
2023-01-23T16:01:05.948Z,6.20
2023-01-23T16:06:21.135Z,6.00
2023-01-23T16:11:23.921Z,6.00
2023-01-23T16:16:26.297Z,6.10
2023-01-23T16:21:30.596Z,6.10
2023-01-23T16:26:34.052Z,5.90
2023-01-23T16:31:38.036Z,5.90
2023-01-23T16:36:40.373Z,5.90
2023-01-23T16:41:42.767Z,6.00
2023-01-23T16:46:46.088Z,6.10
2023-01-23T16:51:56.427Z,6.10
2023-01-23T16:56:58.958Z,6.00
2023-01-23T17:02:04.607Z,5.90
2023-01-23T17:07:14.712Z,5.90
2023-01-23T17:12:22.148Z,6.00
2023-01-23T17:17:34.736Z,5.80
2023-01-23T17:22:41.407Z,5.80
2023-01-23T17:27:45.779Z,5.70
2023-01-23T17:32:53.208Z,5.70
2023-01-23T17:37:58.019Z,5.60
2023-01-23T17:43:00.258Z,5.50
2023-01-23T17:48:02.637Z,5.60
2023-01-23T17:53:05.237Z,5.60
2023-01-23T17:58:07.997Z,5.50
2023-01-23T18:03:15.386Z,5.40
2023-01-23T18:08:19.956Z,5.30
2023-01-23T18:18:35.580Z,5.40
2023-01-23T18:23:38.394Z,5.30
2023-01-23T18:29:06.229Z,5.40
2023-01-23T18:45:00.375Z,5.30
2023-01-23T18:50:03.257Z,5.30
2023-01-23T19:00:37.643Z,5.00
2023-01-23T19:05:40.565Z,5.10
2023-01-23T19:10:49.260Z,5.20
2023-01-23T19:26:17.845Z,4.90
2023-01-23T19:31:23.610Z,4.80
2023-01-23T19:36:27.360Z,4.80
2023-01-23T19:41:46.391Z,4.90
2023-01-23T19:46:48.757Z,5.00
2023-01-23T19:51:51.072Z,5.00
2023-01-23T19:56:53.285Z,5.00
2023-01-23T20:01:55.656Z,5.00
2023-01-23T20:06:58.553Z,4.90
2023-01-23T20:12:00.772Z,5.00
2023-01-23T20:17:29.022Z,5.00
2023-01-23T20:22:31.735Z,5.00
2023-01-23T20:27:34.695Z,5.00
2023-01-23T20:32:37.019Z,5.00
2023-01-23T20:37:39.295Z,4.90
2023-01-23T20:42:41.907Z,4.90
2023-01-23T20:47:44.058Z,5.00
2023-01-23T20:53:06.186Z,5.00
2023-01-23T20:58:28.258Z,5.10
2023-01-23T21:03:30.995Z,5.20
2023-01-23T21:08:34.527Z,5.10
2023-01-23T21:13:37.789Z,5.10
2023-01-23T21:18:44.697Z,5.20
2023-01-23T21:23:49.369Z,5.20
2023-01-23T21:28:53.509Z,5.10
2023-01-23T21:33:56.353Z,5.10
2023-01-23T21:38:59.396Z,5.10
2023-01-23T21:44:01.597Z,5.10
2023-01-23T21:49:04.242Z,5.00
2023-01-23T21:54:06.614Z,5.10
2023-01-23T21:59:08.910Z,5.00
2023-01-23T22:04:14.504Z,4.90
2023-01-23T22:09:18.455Z,4.90
2023-01-23T22:14:21.048Z,4.90
2023-01-23T22:19:25.668Z,4.90
2023-01-23T22:24:28.269Z,4.70
2023-01-23T22:29:30.474Z,4.70
2023-01-23T22:34:32.866Z,4.70
2023-01-23T22:39:35.107Z,4.50
2023-01-23T22:44:37.452Z,4.50
2023-01-23T22:49:39.809Z,4.40
2023-01-23T22:54:42.107Z,4.40
2023-01-23T22:59:44.345Z,4.40
2023-01-23T23:04:49.916Z,4.20
2023-01-23T23:09:52.198Z,4.10
2023-01-23T23:14:54.434Z,4.20
2023-01-23T23:19:56.732Z,4.20
2023-01-23T23:24:58.968Z,4.20
2023-01-23T23:30:01.177Z,4.20
2023-01-23T23:35:03.528Z,4.10
2023-01-23T23:40:06.375Z,4.10
2023-01-23T23:45:09.063Z,4.10
2023-01-23T23:50:11.901Z,4.20
2023-01-23T23:55:14.655Z,4.20
